Newington, CT (06111)

6:43 AM EDT on September 05, 2015 (GMT -0400)
Birchlawn Terrace | | Change Station
CLOSE
Current Station
Personal Weather Station
Location: Newington, CT
Elevation: 92 ft
Nearby Weather Stations

Elev 92 ft 41.70 °N, 72.72 °W | Updated 40 seconds ago

Clear
Clear
55.0 °F
Feels Like 55.0 °F
N
0.0
Wind Variable Wind from ESE
Gusts 0.0 mph

Today
High -- | Low -- °F
--% Chance of Precip.
Yesterday
High -- | Low -- °F
Precip. -- in
6:20 AM 7:17 PM
Waning Gibbous, 50% visible
Pressure 30.27 in
Visibility 10.0 miles
Clouds Clear
Dew Point 54 °F
Humidity 96%
Rainfall 0.00 in
Snow Depth Not available.
UV 0 out of 12
Pollen 8.80 out of 12
Air Quality Not available.
Flu Activity Not available.
METAR KHFD 050953Z AUTO 02004KT 10SM CLR 14/12 A3027 RMK AO2 SLP250 T01440122
Pressure 30.27 in
Visibility 10.0 miles
Clouds Clear
Dew Point 54 °F
Humidity 96%
Rainfall 0.00 in
Snow Depth Not available.
UV 0 out of 12
Pollen 8.80 out of 12
Air Quality Not available.
Flu Activity Not available.
METAR KHFD 050953Z AUTO 02004KT 10SM CLR 14/12 A3027 RMK AO2 SLP250 T01440122

10-Day Weather Forecast

×

Almanac

Astronomy

Sep. 05, 2015 Rise Set
Actual Time
Civil Twilight
Nautical Twilight
Astronomical Twilight
Moon
Length of Visible Light
Length of Day
Tomorrow will be .
, % of the Moon is Illuminated

Today's Extremes

State Highs State Lows

Community

WunderPhotos

Upload Photos

1,852,439 photos uploaded!

WunderBlogs® & News

Nearby

Air Quality

  Air Quality AQ Index Pollutant
Not available.

Snow Depth

Station Depth Elevation

Earthquake Activity

City Distance Mag. Time & Date
Minimum magnitude displayed is 2.5.

Coastal Water Temperatures

Place Temperature

Stations

Nearby Weather Stations

Station Location Temp. Windchill Dew Point Humidity Wind Precip. Elev Updated Type